Главная страница
METAR-TAF:

METAR-TAF

Аэропорты :

Форт Мак-Мюррей, Альберта, Канада

широта: 56-39N, долгота: 111-13W, высота над уровнем моря: 369 м

Текущие метеонаблюдения

Эта сводка был подготовлена 41 минут назад, в 12:00 UTC
Ветер 12 Узел от восточно-юго-восточный
Температура 1°C
Влажность 55%
Давление 1013 hPa
Видимость: 14.5 км
Рассеянная облачность на высоте 14000 фута
Сплошная облачность на высоте 16000 фута

METAR: CYMM 201200Z AUTO 12012KT 9SM BKN140 OVC160 01/M07 A2990 RMK SLP147

Время: 06:41 (12:41 UTC)

Прогноз

Эта сводка был подготовлена 3 минут назад, в 12:38 UTC
Прогноз действительный с 20-го 13 UTC до 21-го 01 UTC
Ветер 12 Узел от восточно-юго-восточный
Видимость: 10 км
Сплошная облачность на высоте 14000 фута
изменения
С 20-го 17 UTC до 20-го 19 UTC
Ветер 14 Узел от западный с порывами до 24 Узел
небольшая облачность на высоте 8000 фута

TAF: CYMM 201238Z 2013/2101 12012KT P6SM OVC140 BECMG 2017/2019 27014G24KT FEW080 RMK FCST BASED ON AUTO OBS. NXT FCST BY 201900Z

Метеонаблюдения и прогнозы для более 4000 аэропортов (сводки METAR и TAF).

Имеющиеся станции представлены на карте желтыми и красными точками.

Чтобы увидеть название станции, наведите на нее мышь.

Затем щелкните, чтобы увидеть метеонаблюдения и метеопрогнозы.

Управление картой: чтобы увеличить масштаб, щелкните зеленые кнопки с черным крестиком; чтобы уменьшить масштаб, щелкните зеленую кнопку с тире; для просмотра соседних карт щелкайте зеленые стрелки.


METAR-TAF: